createdAt,value
2018-12-06T00:01:32.754Z,3.14
2018-12-06T00:04:04.927Z,3.08
2018-12-06T00:06:35.458Z,3.08
2018-12-06T00:09:07.545Z,3.07
2018-12-06T00:11:38.880Z,3.02
2018-12-06T00:14:09.570Z,3.02
2018-12-06T00:16:39.559Z,3.08
2018-12-06T00:19:11.910Z,3.15
2018-12-06T00:21:42.418Z,3.12
2018-12-06T00:24:13.773Z,3.09
2018-12-06T00:26:45.456Z,3.14
2018-12-06T00:29:15.787Z,3.12
2018-12-06T00:31:46.540Z,3.16
2018-12-06T00:34:16.482Z,3.08
2018-12-06T00:36:46.607Z,3.14
2018-12-06T00:39:17.603Z,3.08
2018-12-06T00:41:48.358Z,3.16
2018-12-06T00:44:18.960Z,3.19
2018-12-06T00:46:49.163Z,3.18
2018-12-06T00:49:19.842Z,3.20
2018-12-06T00:51:50.326Z,3.13
2018-12-06T00:54:20.542Z,3.25
2018-12-06T00:56:50.803Z,3.22
2018-12-06T00:59:20.938Z,3.21
2018-12-06T01:01:53.349Z,3.21
2018-12-06T01:04:23.809Z,3.16
2018-12-06T01:06:54.778Z,3.10
2018-12-06T01:09:24.979Z,3.14
2018-12-06T01:11:56.480Z,3.15
2018-12-06T01:14:30.801Z,3.16
2018-12-06T01:17:02.051Z,3.24
2018-12-06T01:19:33.591Z,3.12
2018-12-06T01:22:03.742Z,3.22
2018-12-06T01:24:34.467Z,3.20
2018-12-06T01:27:04.525Z,3.18
2018-12-06T01:29:34.614Z,3.18
2018-12-06T01:32:06.793Z,3.21
2018-12-06T01:34:37.270Z,3.19
2018-12-06T01:37:08.047Z,3.26
2018-12-06T01:39:39.588Z,3.22
2018-12-06T01:42:09.855Z,3.28
2018-12-06T01:44:40.644Z,3.23
2018-12-06T01:47:11.325Z,3.22
2018-12-06T01:49:41.742Z,3.25
2018-12-06T01:52:13.297Z,3.34
2018-12-06T01:54:43.425Z,3.30
2018-12-06T01:57:14.670Z,3.30
2018-12-06T01:59:45.388Z,3.36
2018-12-06T02:02:16.177Z,3.30
2018-12-06T02:04:46.401Z,3.44
2018-12-06T02:07:16.482Z,3.43
2018-12-06T02:09:47.821Z,3.44
2018-12-06T02:12:18.036Z,3.35
2018-12-06T02:14:48.698Z,3.40
2018-12-06T02:17:19.731Z,3.43
2018-12-06T02:19:50.593Z,3.45
2018-12-06T02:22:20.603Z,3.47
2018-12-06T02:24:50.671Z,3.49
2018-12-06T02:27:21.171Z,3.61
2018-12-06T02:29:55.590Z,3.59
2018-12-06T02:32:26.420Z,3.59
2018-12-06T02:34:56.928Z,3.64
2018-12-06T02:37:28.842Z,3.68
2018-12-06T02:39:59.566Z,3.72
2018-12-06T02:42:29.690Z,3.71
2018-12-06T02:45:00.505Z,3.77
2018-12-06T02:47:30.550Z,3.71
2018-12-06T02:50:01.342Z,3.75
2018-12-06T02:52:32.207Z,3.71
2018-12-06T02:55:02.834Z,3.71
2018-12-06T02:57:32.900Z,3.75
2018-12-06T03:00:04.714Z,3.71
2018-12-06T03:02:34.668Z,3.73
2018-12-06T03:05:06.315Z,3.73
2018-12-06T03:07:37.080Z,3.74
2018-12-06T03:10:07.674Z,3.74
2018-12-06T03:12:37.763Z,3.79
2018-12-06T03:15:08.257Z,3.83
2018-12-06T03:17:38.392Z,3.87
2018-12-06T03:20:09.729Z,3.90
2018-12-06T03:22:40.546Z,3.89
2018-12-06T03:25:12.102Z,3.83
2018-12-06T03:27:43.502Z,3.90
2018-12-06T03:30:13.595Z,3.76
2018-12-06T03:32:44.246Z,3.78
2018-12-06T03:35:14.959Z,3.81
2018-12-06T03:37:45.714Z,3.89
2018-12-06T03:40:16.503Z,3.96
2018-12-06T03:42:47.266Z,4.00
2018-12-06T03:45:17.984Z,4.06
2018-12-06T03:47:48.053Z,4.14
2018-12-06T03:50:19.335Z,4.09
2018-12-06T03:52:49.497Z,4.11
2018-12-06T03:55:21.798Z,4.07
2018-12-06T03:57:53.046Z,4.09
2018-12-06T04:00:24.808Z,4.13
2018-12-06T04:02:55.445Z,4.10
2018-12-06T04:05:25.498Z,4.18
2018-12-06T04:07:55.465Z,4.19
2018-12-06T04:10:26.185Z,4.21
2018-12-06T04:12:58.071Z,4.26
2018-12-06T04:15:28.285Z,4.26
2018-12-06T04:17:59.490Z,4.30
2018-12-06T04:20:30.173Z,4.30
2018-12-06T04:23:01.296Z,4.34
2018-12-06T04:25:31.918Z,4.40
2018-12-06T04:28:02.695Z,4.39
2018-12-06T04:30:33.633Z,4.36
2018-12-06T04:33:03.902Z,4.46
2018-12-06T04:35:34.578Z,4.47
2018-12-06T04:38:04.811Z,4.65
2018-12-06T04:40:36.957Z,4.62
2018-12-06T04:43:07.099Z,4.65
2018-12-06T04:45:38.031Z,4.77
2018-12-06T04:48:08.702Z,4.84
2018-12-06T04:50:39.427Z,4.86
2018-12-06T04:53:10.202Z,4.88
2018-12-06T04:55:40.375Z,4.94
2018-12-06T04:58:10.590Z,4.97
2018-12-06T05:00:41.074Z,4.96
2018-12-06T05:03:11.947Z,4.99
2018-12-06T05:05:41.989Z,4.98
2018-12-06T05:08:13.982Z,5.02
2018-12-06T05:10:44.151Z,5.08
2018-12-06T05:13:14.973Z,5.04
2018-12-06T05:15:45.575Z,5.11
2018-12-06T05:18:15.555Z,5.18
2018-12-06T05:20:45.723Z,5.13
2018-12-06T05:23:16.490Z,5.08
2018-12-06T05:25:46.906Z,5.22
2018-12-06T05:28:16.854Z,5.23
2018-12-06T05:30:48.278Z,5.24
2018-12-06T05:33:19.490Z,5.20
2018-12-06T05:35:49.406Z,5.20
2018-12-06T05:38:19.295Z,5.29
2018-12-06T05:40:49.193Z,5.29
2018-12-06T05:43:19.051Z,5.25
2018-12-06T05:45:49.940Z,5.20
2018-12-06T05:48:20.053Z,5.28
2018-12-06T05:50:50.157Z,5.30
2018-12-06T05:53:20.947Z,5.24
2018-12-06T05:55:51.638Z,5.28
2018-12-06T05:58:23.337Z,5.30
2018-12-06T06:00:53.518Z,5.31
2018-12-06T06:03:23.702Z,5.32
2018-12-06T06:05:54.366Z,5.32
2018-12-06T06:08:26.906Z,5.42
2018-12-06T06:10:57.687Z,5.40
2018-12-06T06:13:28.356Z,5.50
2018-12-06T06:15:58.402Z,5.54
2018-12-06T06:18:29.844Z,5.50
2018-12-06T06:20:59.977Z,5.55
2018-12-06T06:23:31.206Z,5.45
2018-12-06T06:26:02.373Z,5.57
2018-12-06T06:28:32.406Z,5.46
2018-12-06T06:31:03.598Z,5.47
2018-12-06T06:33:34.996Z,5.49
2018-12-06T06:36:06.486Z,5.55
2018-12-06T06:38:37.323Z,5.51
2018-12-06T06:41:07.466Z,5.56
2018-12-06T06:43:38.150Z,5.53
2018-12-06T06:46:08.188Z,5.54
2018-12-06T06:48:38.383Z,5.56
2018-12-06T06:51:09.291Z,5.60
2018-12-06T06:53:40.068Z,5.61
2018-12-06T06:56:11.583Z,5.67
2018-12-06T06:58:42.804Z,5.64
2018-12-06T07:01:13.508Z,5.69
2018-12-06T07:03:44.295Z,5.69
2018-12-06T07:06:16.527Z,5.67
2018-12-06T07:08:46.765Z,5.65
2018-12-06T07:11:16.969Z,5.62
2018-12-06T07:13:47.166Z,5.60
2018-12-06T07:16:17.333Z,5.56
2018-12-06T07:18:48.789Z,5.59
2018-12-06T07:21:19.013Z,5.52
2018-12-06T07:23:50.750Z,5.54
2018-12-06T07:26:21.391Z,5.59
2018-12-06T07:28:52.863Z,5.62
2018-12-06T07:31:23.862Z,5.60
2018-12-06T07:33:54.829Z,5.65
2018-12-06T07:36:25.560Z,5.61
2018-12-06T07:38:56.514Z,5.72
2018-12-06T07:41:26.597Z,5.73
2018-12-06T07:43:58.108Z,5.84
2018-12-06T07:46:28.945Z,5.79
2018-12-06T07:48:59.617Z,5.81
2018-12-06T07:51:30.408Z,5.79
2018-12-06T07:54:01.213Z,5.87
2018-12-06T07:56:32.451Z,5.85
2018-12-06T07:59:03.794Z,5.83
2018-12-06T08:01:34.620Z,5.91
2018-12-06T08:04:04.782Z,5.90
2018-12-06T08:06:36.303Z,5.97
2018-12-06T08:09:09.843Z,5.90
2018-12-06T08:11:41.522Z,5.93
2018-12-06T08:14:12.057Z,6.00
2018-12-06T08:16:43.342Z,6.07
2018-12-06T08:19:14.066Z,6.03
2018-12-06T08:21:44.827Z,6.02
2018-12-06T08:24:15.471Z,6.02
2018-12-06T08:26:46.141Z,6.03
2018-12-06T08:29:16.297Z,6.08
2018-12-06T08:31:47.147Z,6.12
2018-12-06T08:34:17.259Z,6.07
2018-12-06T08:36:47.548Z,6.15
2018-12-06T08:39:17.783Z,6.17
2018-12-06T08:41:48.556Z,6.24
2018-12-06T08:44:21.454Z,6.26
2018-12-06T08:46:52.442Z,6.33
2018-12-06T08:49:22.609Z,6.38
2018-12-06T08:51:53.385Z,6.50
2018-12-06T08:54:23.482Z,6.39
2018-12-06T08:56:54.465Z,6.42
2018-12-06T08:59:24.742Z,6.38
2018-12-06T09:01:55.558Z,6.43
2018-12-06T09:04:27.523Z,6.48
2018-12-06T09:06:58.365Z,6.52
2018-12-06T09:09:29.311Z,6.58
2018-12-06T09:12:00.206Z,6.58
2018-12-06T09:14:30.368Z,6.62
2018-12-06T09:17:01.211Z,6.69
2018-12-06T09:19:31.890Z,6.69
2018-12-06T09:22:02.893Z,6.78
2018-12-06T09:24:32.911Z,6.88
2018-12-06T09:27:03.446Z,6.96
2018-12-06T09:29:34.019Z,6.99
2018-12-06T09:32:05.475Z,6.97
2018-12-06T09:34:36.954Z,6.99
2018-12-06T09:37:07.646Z,6.99
2018-12-06T09:39:38.801Z,7.03
2018-12-06T09:42:10.123Z,7.09
2018-12-06T09:44:40.823Z,7.21
2018-12-06T09:47:11.166Z,7.42
2018-12-06T09:49:42.212Z,7.48
2018-12-06T09:52:12.405Z,7.61
2018-12-06T09:54:43.165Z,7.62
2018-12-06T09:57:13.421Z,7.70
2018-12-06T09:59:44.292Z,7.72
2018-12-06T10:02:14.682Z,7.84
2018-12-06T10:04:44.737Z,7.90
2018-12-06T10:07:16.782Z,7.89
2018-12-06T10:09:46.775Z,7.97
2018-12-06T10:12:17.443Z,7.98
2018-12-06T10:14:47.411Z,7.99
2018-12-06T10:17:17.586Z,8.02
2018-12-06T10:19:48.170Z,8.05
2018-12-06T10:22:19.305Z,8.10
2018-12-06T10:24:50.640Z,8.11
2018-12-06T10:27:21.357Z,8.23
2018-12-06T10:29:52.911Z,8.44
2018-12-06T10:32:23.813Z,8.51
2018-12-06T10:34:53.915Z,8.56
2018-12-06T10:37:25.146Z,8.58
2018-12-06T10:39:55.582Z,8.56
2018-12-06T10:42:26.315Z,8.56
2018-12-06T10:44:56.266Z,8.64
2018-12-06T10:47:27.590Z,8.65
2018-12-06T10:49:58.198Z,8.78
2018-12-06T10:52:29.825Z,8.88
2018-12-06T10:54:59.931Z,8.80
2018-12-06T10:57:31.530Z,8.77
2018-12-06T11:00:02.735Z,8.80
2018-12-06T11:02:37.956Z,8.90
2018-12-06T11:05:08.164Z,8.79
2018-12-06T11:07:38.914Z,8.82
2018-12-06T11:10:09.651Z,8.87
2018-12-06T11:12:39.774Z,8.93
2018-12-06T11:15:10.183Z,8.93
2018-12-06T11:17:40.380Z,8.91
2018-12-06T11:20:11.188Z,8.94
2018-12-06T11:22:42.095Z,8.91
2018-12-06T11:25:12.150Z,8.90
2018-12-06T11:27:42.803Z,9.03
2018-12-06T11:30:13.484Z,8.95
2018-12-06T11:32:44.753Z,9.01
2018-12-06T11:35:15.467Z,8.98
2018-12-06T11:37:46.282Z,9.05
2018-12-06T11:40:58.014Z,9.09
2018-12-06T11:43:29.035Z,9.06
2018-12-06T11:45:59.913Z,9.05
2018-12-06T11:48:30.565Z,9.03
2018-12-06T11:51:00.922Z,9.02
2018-12-06T11:53:32.269Z,9.00
2018-12-06T11:56:03.430Z,9.02
2018-12-06T11:58:34.293Z,8.98
2018-12-06T12:01:05.258Z,8.96
2018-12-06T12:03:36.172Z,8.85
2018-12-06T12:06:07.015Z,8.90
2018-12-06T12:08:38.414Z,8.89
2018-12-06T12:11:10.006Z,8.86
2018-12-06T12:13:40.807Z,8.90
2018-12-06T12:16:10.903Z,8.87
2018-12-06T12:18:43.060Z,8.86
2018-12-06T12:21:12.987Z,8.91
2018-12-06T12:23:43.614Z,8.93
2018-12-06T12:26:14.242Z,8.97
2018-12-06T12:28:44.331Z,8.96
2018-12-06T12:31:15.085Z,8.94
2018-12-06T12:33:47.629Z,8.93
2018-12-06T12:36:18.198Z,8.91
2018-12-06T12:38:49.046Z,9.04
2018-12-06T12:41:20.302Z,8.96
2018-12-06T12:43:50.969Z,8.96
2018-12-06T12:46:21.599Z,8.94
2018-12-06T12:48:51.762Z,8.95
2018-12-06T12:51:22.432Z,8.99
2018-12-06T12:53:53.020Z,8.94
2018-12-06T12:56:24.133Z,8.93
2018-12-06T12:58:55.988Z,8.97
2018-12-06T13:01:27.010Z,8.99
2018-12-06T13:03:57.137Z,8.99
2018-12-06T13:06:27.638Z,9.05
2018-12-06T13:08:58.942Z,9.05
2018-12-06T13:11:30.086Z,9.04
2018-12-06T13:14:00.809Z,8.97
2018-12-06T13:16:30.950Z,9.07
2018-12-06T13:19:01.790Z,9.06
2018-12-06T13:21:32.833Z,9.05
2018-12-06T13:24:03.510Z,9.07
2018-12-06T13:26:34.059Z,9.05
2018-12-06T13:29:05.250Z,9.08
2018-12-06T13:31:35.433Z,9.04
2018-12-06T13:34:06.930Z,8.96
2018-12-06T13:36:38.257Z,8.98
2018-12-06T13:39:09.538Z,8.99
2018-12-06T13:41:39.765Z,9.07
2018-12-06T13:44:11.511Z,9.04
2018-12-06T13:46:42.649Z,9.05
2018-12-06T13:49:12.688Z,8.99
2018-12-06T13:51:43.424Z,8.96
2018-12-06T13:54:14.782Z,8.97
2018-12-06T13:56:45.515Z,9.00
2018-12-06T13:59:15.598Z,8.99
2018-12-06T14:01:46.511Z,9.05
2018-12-06T14:04:17.171Z,8.99
2018-12-06T14:06:47.930Z,8.96
2018-12-06T14:09:19.305Z,8.96
2018-12-06T14:11:51.374Z,8.98
2018-12-06T14:14:21.650Z,8.89
2018-12-06T14:16:52.744Z,8.90
2018-12-06T14:19:23.688Z,8.90
2018-12-06T14:21:53.743Z,8.91
2018-12-06T14:24:24.644Z,8.95
2018-12-06T14:26:55.385Z,8.98
2018-12-06T14:29:26.159Z,8.94
2018-12-06T14:31:56.373Z,9.03
2018-12-06T14:34:26.988Z,9.06
2018-12-06T14:37:02.150Z,9.03
2018-12-06T14:39:29.133Z,9.06
2018-12-06T14:41:59.418Z,9.03
2018-12-06T14:44:30.074Z,9.01
2018-12-06T14:47:00.762Z,9.01
2018-12-06T14:49:32.144Z,8.99
2018-12-06T14:52:03.388Z,9.02
2018-12-06T14:54:33.996Z,9.07
2018-12-06T14:57:04.330Z,9.11
2018-12-06T14:59:35.699Z,9.12
2018-12-06T15:02:05.732Z,9.07
2018-12-06T15:04:35.906Z,9.14
2018-12-06T15:07:06.619Z,9.15
2018-12-06T15:09:37.347Z,9.13
2018-12-06T15:12:07.958Z,9.19
2018-12-06T15:14:39.501Z,9.14
2018-12-06T15:17:11.069Z,9.06
2018-12-06T15:19:41.122Z,9.21
2018-12-06T15:22:13.496Z,9.25
2018-12-06T15:24:44.278Z,9.25
2018-12-06T15:27:14.770Z,9.21
2018-12-06T15:29:46.915Z,9.29
2018-12-06T15:32:17.627Z,9.18
2018-12-06T15:34:49.823Z,9.22
2018-12-06T15:37:21.060Z,9.23
2018-12-06T15:39:52.362Z,9.37
2018-12-06T15:42:23.966Z,9.40
2018-12-06T15:44:55.403Z,9.35
2018-12-06T15:47:27.270Z,9.41
2018-12-06T15:49:57.895Z,9.38
2018-12-06T15:52:28.752Z,9.44
2018-12-06T15:54:59.400Z,9.46
2018-12-06T15:57:30.210Z,9.45
2018-12-06T16:00:00.421Z,9.46
2018-12-06T16:02:31.831Z,9.50
2018-12-06T16:05:02.621Z,9.48
2018-12-06T16:07:32.790Z,9.56
2018-12-06T16:10:04.411Z,9.53
2018-12-06T16:12:35.994Z,9.48
2018-12-06T16:15:08.419Z,9.58
2018-12-06T16:17:39.091Z,9.47
2018-12-06T16:20:11.378Z,9.58
2018-12-06T16:22:42.566Z,9.55
2018-12-06T16:25:12.909Z,9.53
2018-12-06T16:27:43.096Z,9.55
2018-12-06T16:30:13.186Z,9.52
2018-12-06T16:32:43.282Z,9.46
2018-12-06T16:35:13.418Z,9.50
2018-12-06T16:37:45.088Z,9.54
2018-12-06T16:40:16.290Z,9.50
2018-12-06T16:42:48.122Z,9.47
2018-12-06T16:45:18.621Z,9.53
2018-12-06T16:47:48.788Z,9.53
2018-12-06T16:50:19.474Z,9.42
2018-12-06T16:52:50.354Z,9.53
2018-12-06T16:55:20.592Z,9.52
2018-12-06T16:57:51.394Z,9.53
2018-12-06T17:00:23.896Z,9.56
2018-12-06T17:02:55.171Z,9.64
2018-12-06T17:05:25.730Z,9.61
2018-12-06T17:07:56.929Z,9.67
2018-12-06T17:10:28.183Z,9.60
2018-12-06T17:12:58.895Z,9.64
2018-12-06T17:15:29.746Z,9.71
2018-12-06T17:18:00.378Z,9.69
2018-12-06T17:20:30.677Z,9.74
2018-12-06T17:23:02.074Z,9.75
2018-12-06T17:25:32.206Z,9.69
2018-12-06T17:28:02.831Z,9.75
2018-12-06T17:30:33.545Z,9.72
2018-12-06T17:33:04.386Z,9.72
2018-12-06T17:35:34.584Z,9.78
2018-12-06T17:38:05.690Z,9.80
2018-12-06T17:40:35.880Z,9.78
2018-12-06T17:43:06.039Z,9.80
2018-12-06T17:45:37.238Z,9.81
2018-12-06T17:48:07.312Z,9.80
2018-12-06T17:50:37.409Z,9.79
2018-12-06T17:53:08.674Z,9.83
2018-12-06T17:55:51.933Z,9.83
2018-12-06T17:58:22.737Z,9.82
2018-12-06T18:00:53.577Z,9.85
2018-12-06T18:03:25.430Z,9.87
2018-12-06T18:05:55.517Z,9.88
2018-12-06T18:08:25.641Z,9.91
2018-12-06T18:10:57.495Z,9.88
2018-12-06T18:13:28.673Z,9.98
2018-12-06T18:15:58.695Z,9.92
2018-12-06T18:18:29.382Z,10.01
2018-12-06T18:21:00.136Z,10.08
2018-12-06T18:23:30.702Z,10.03
2018-12-06T18:26:01.546Z,10.06
2018-12-06T18:28:32.313Z,10.08
2018-12-06T18:31:04.167Z,10.10
2018-12-06T18:33:35.314Z,10.07
2018-12-06T18:36:06.008Z,10.17
2018-12-06T18:38:36.675Z,10.19
2018-12-06T18:41:07.473Z,10.23
2018-12-06T18:43:37.962Z,10.27
2018-12-06T18:46:08.700Z,10.25
2018-12-06T18:48:39.479Z,10.28
2018-12-06T18:51:10.355Z,10.18
2018-12-06T18:53:41.267Z,10.24
2018-12-06T18:56:11.951Z,10.25
2018-12-06T18:58:42.503Z,10.23
2018-12-06T19:01:13.192Z,10.30
2018-12-06T19:03:45.066Z,10.27
2018-12-06T19:06:16.532Z,10.30
2018-12-06T19:08:46.752Z,10.39
2018-12-06T19:11:18.630Z,10.37
2018-12-06T19:13:49.573Z,10.34
2018-12-06T19:16:19.642Z,10.36
2018-12-06T19:18:50.537Z,10.43
2018-12-06T19:21:21.787Z,10.38
2018-12-06T19:23:52.237Z,10.30
2018-12-06T19:26:24.225Z,10.41
2018-12-06T19:28:55.864Z,10.46
2018-12-06T19:31:25.965Z,10.51
2018-12-06T19:33:57.218Z,10.50
2018-12-06T19:36:27.365Z,10.45
2018-12-06T19:38:58.263Z,10.51
2018-12-06T19:41:28.411Z,10.56
2018-12-06T19:43:59.460Z,10.56
2018-12-06T19:46:29.622Z,10.53
2018-12-06T19:49:00.791Z,10.53
2018-12-06T19:51:30.950Z,10.58
2018-12-06T19:54:01.596Z,10.57
2018-12-06T19:56:31.838Z,10.54
2018-12-06T19:59:02.027Z,10.52
2018-12-06T20:01:32.793Z,10.62
2018-12-06T20:04:03.262Z,10.56
2018-12-06T20:06:33.391Z,10.57
2018-12-06T20:09:05.214Z,10.57
2018-12-06T20:11:35.824Z,10.55
2018-12-06T20:14:06.531Z,10.57
2018-12-06T20:16:37.453Z,10.61
2018-12-06T20:19:08.631Z,10.63
2018-12-06T20:21:39.186Z,10.62
2018-12-06T20:24:09.789Z,10.56
2018-12-06T20:26:40.395Z,10.54
2018-12-06T20:29:12.114Z,10.55
2018-12-06T20:31:44.485Z,10.53
2018-12-06T20:34:14.838Z,10.57
2018-12-06T20:36:45.831Z,10.48
2018-12-06T20:39:16.082Z,10.61
2018-12-06T20:41:47.590Z,10.60
2018-12-06T20:44:18.974Z,10.56
2018-12-06T20:46:49.046Z,10.55
2018-12-06T20:49:19.347Z,10.64
2018-12-06T20:51:50.115Z,10.53
2018-12-06T20:54:20.371Z,10.59
2018-12-06T20:56:51.174Z,10.60
2018-12-06T20:59:21.967Z,10.57
2018-12-06T21:01:52.037Z,10.60
2018-12-06T21:04:22.190Z,10.58
2018-12-06T21:06:52.282Z,10.62
2018-12-06T21:09:22.453Z,10.60
2018-12-06T21:11:54.757Z,10.60
2018-12-06T21:14:25.564Z,10.67
2018-12-06T21:16:58.017Z,10.66
2018-12-06T21:19:28.258Z,10.66
2018-12-06T21:21:58.325Z,10.70
2018-12-06T21:24:30.302Z,10.66
2018-12-06T21:27:01.906Z,10.78
2018-12-06T21:29:31.949Z,10.77
2018-12-06T21:32:04.976Z,10.77
2018-12-06T21:34:35.034Z,10.72
2018-12-06T21:37:05.186Z,10.65
2018-12-06T21:39:36.511Z,10.78
2018-12-06T21:42:07.886Z,10.75
2018-12-06T21:44:38.699Z,10.75
2018-12-06T21:47:10.718Z,10.77
2018-12-06T21:49:41.250Z,10.72
2018-12-06T21:52:11.987Z,10.79
2018-12-06T21:54:43.721Z,10.78
2018-12-06T21:57:14.469Z,10.81
2018-12-06T21:59:45.366Z,10.80
2018-12-06T22:02:25.419Z,10.82
2018-12-06T22:04:57.954Z,10.80
2018-12-06T22:07:28.383Z,10.81
2018-12-06T22:09:59.162Z,10.89
2018-12-06T22:12:29.751Z,10.95
2018-12-06T22:15:00.382Z,10.82
2018-12-06T22:17:31.137Z,10.91
2018-12-06T22:20:01.204Z,10.85
2018-12-06T22:22:32.177Z,10.85
2018-12-06T22:25:03.010Z,10.90
2018-12-06T22:27:34.095Z,10.95
2018-12-06T22:30:05.470Z,11.00
2018-12-06T22:32:36.642Z,10.95
2018-12-06T22:35:07.329Z,10.98
2018-12-06T22:37:37.993Z,11.01
2018-12-06T22:40:09.003Z,11.01
2018-12-06T22:42:39.550Z,10.99
2018-12-06T22:46:13.820Z,10.98
2018-12-06T22:48:44.669Z,10.95
2018-12-06T22:51:14.746Z,10.93
2018-12-06T22:53:45.194Z,10.96
2018-12-06T22:56:15.561Z,10.92
2018-12-06T22:58:46.893Z,11.03
2018-12-06T23:01:20.838Z,10.99
2018-12-06T23:03:51.934Z,11.05
2018-12-06T23:06:22.902Z,11.13
2018-12-06T23:08:53.733Z,11.12
2018-12-06T23:11:23.790Z,11.11
2018-12-06T23:13:54.827Z,11.12
2018-12-06T23:16:25.141Z,11.23
2018-12-06T23:18:55.251Z,11.15
2018-12-06T23:21:25.318Z,11.19
2018-12-06T23:23:56.003Z,11.21
2018-12-06T23:26:27.076Z,11.23
2018-12-06T23:28:57.004Z,11.25
2018-12-06T23:31:27.717Z,11.31
2018-12-06T23:33:58.943Z,11.34
2018-12-06T23:36:31.008Z,11.32
2018-12-06T23:39:01.633Z,11.32
2018-12-06T23:41:32.517Z,11.34
2018-12-06T23:44:03.242Z,11.27
2018-12-06T23:46:34.546Z,11.32
2018-12-06T23:49:05.239Z,11.41
2018-12-06T23:51:38.814Z,11.41
2018-12-06T23:54:09.652Z,11.32
2018-12-06T23:56:40.505Z,11.32
2018-12-06T23:59:10.651Z,11.36
